Latest Weather Observations for Rolleston Airport

IDQ60801

Issued at 10:02 am EST Tuesday 7 December 2021 (issued every 10 minutes, with the page automatically refreshed every 10 minutes)

About weather observations | Map of weather stations | Latest weather observations for QLD | Other Formats
Station Details ID: 035129 Name: ROLLESTON AIRPORT Lat: -24.46 Lon: 148.63 Height: 219.45 m
Data from the previous 72 hours. | See also: Recent months at Rolleston Airport
Date/Time
EST
Temp
°C
App
Temp
°C
Dew
Point
°C
Rel
Hum
%
Delta-T
°C
Wind Press
QNH
hPa
Press
MSL
hPa
Rain since
9am
mm
Dir  Spd
km/h
Gust
km/h
Spd
kts
Gust
kts
07/10:00am 26.5 28.9 19.6 66 4.5 NNW 6 13 3 7 1014.2 1012.8 0.0
07/09:30am 25.3 27.6 19.4 70 3.8 NW 6 11 3 6 1014.5 1013.1 0.0
07/09:00am 24.7 27.7 20.0 75 3.1 NNW 4 7 2 4 1014.7 1013.3 6.8
07/08:30am 24.4 27.9 20.3 78 2.7 SW 2 6 1 3 1014.6 1013.2 6.8
07/08:00am 23.4 26.8 20.2 82 2.1 S 2 4 1 2 1014.7 1013.3 6.8
07/07:30am 23.3 26.5 20.4 84 1.9 SE 4 7 2 4 1014.7 1013.3 6.8
07/07:00am 21.9 24.9 20.0 89 1.2 S 4 6 2 3 1014.6 1013.2 6.8
07/06:30am 20.6 23.4 19.6 94 0.6 SW 4 7 2 4 1014.3 1012.9 6.8
07/06:00am 19.9 23.6 19.9 100 0.0 CALM 0 4 0 2 1014.0 1012.6 6.8
07/05:30am 19.0 22.3 19.0 100 0.0 CALM 0 0 0 0 1014.1 1012.7 6.8
07/05:00am 19.2 21.8 19.2 100 0.0 WNW 4 6 2 3 1013.6 1012.2 6.8
07/04:30am 19.3 21.9 19.3 100 0.0 N 4 6 2 3 1012.9 1011.5 6.8
07/04:00am 19.2 21.4 19.2 100 0.0 NW 6 9 3 5 1013.2 1011.8 6.8
07/03:30am 19.4 21.7 19.4 100 0.0 N 6 9 3 5 1012.7 1011.3 6.6
07/03:00am 19.5 21.8 19.5 100 0.0 NE 6 9 3 5 1012.6 1011.2 6.6
07/02:30am 19.4 21.7 19.4 100 0.0 ESE 6 7 3 4 1013.3 1011.9 6.6
07/02:00am 19.4 21.0 19.2 99 0.1 ESE 9 13 5 7 1013.5 1012.1 6.6
07/01:30am 19.7 21.9 19.5 99 0.1 SSE 7 13 4 7 1014.0 1012.6 6.6
07/01:00am 19.4 21.6 19.2 99 0.1 S 6 13 3 7 1014.6 1013.2 6.6
07/12:30am 19.4 20.1 18.9 97 0.3 SSE 13 20 7 11 1014.3 1012.9 6.0
07/12:00am 19.4 20.4 18.6 95 0.5 SSW 11 17 6 9 1015.1 1013.7 5.6
 
Date/Time
EST
Temp
°C
App
Temp
°C
Dew
Point
°C
Rel
Hum
%
Delta-T
°C
Wind Press
QNH
hPa
Press
MSL
hPa
Rain since
9am
mm
Dir  Spd
km/h
Gust
km/h
Spd
kts
Gust
kts
06/11:30pm 19.5 20.4 19.2 98 0.2 SSW 13 20 7 11 1015.0 1013.6 5.0
06/11:00pm 19.4 20.2 19.1 98 0.2 SW 13 20 7 11 1014.8 1013.4 4.8
06/10:30pm 19.4 18.8 18.9 97 0.3 SSE 20 33 11 18 1014.5 1013.1 4.8
06/10:00pm 19.4 19.7 18.7 96 0.4 S 15 24 8 13 1015.3 1013.9 4.8
06/09:30pm 19.6 19.2 18.9 96 0.4 S 19 30 10 16 1015.3 1013.9 4.6
06/09:00pm 20.3 20.1 18.6 90 1.1 S 17 30 9 16 1015.1 1013.7 4.0
06/08:30pm 21.1 20.7 19.4 90 1.1 SSE 20 33 11 18 1014.1 1012.7 4.0
06/08:00pm 21.4 22.4 20.2 93 0.8 S 15 26 8 14 1013.3 1011.9 4.0
06/07:30pm 21.3 21.2 19.6 90 1.1 S 19 30 10 16 1013.1 1011.7 3.6
06/07:00pm 23.5 23.2 17.3 68 3.9 SSW 15 32 8 17 1012.8 1011.4 0.0
06/06:30pm 28.5 30.1 18.3 54 6.6 E 7 13 4 7 1011.5 1010.1 0.0
06/06:00pm 29.2 30.3 18.0 50 7.2 NE 9 13 5 7 1011.2 1009.8 0.0
06/05:30pm 29.4 30.3 18.5 52 7.1 N 11 19 6 10 1010.3 1008.9 0.0
06/05:00pm 30.5 31.2 17.9 47 8.1 NE 11 17 6 9 1010.2 1008.8 0.0
06/04:30pm 30.5 31.7 18.2 47 8.0 NNE 9 15 5 8 1009.9 1008.5 0.0
06/04:00pm 30.8 32.2 17.8 45 8.4 NNE 7 15 4 8 1009.8 1008.4 0.0
06/03:30pm 30.8 31.4 17.8 45 8.4 E 11 19 6 10 1010.2 1008.8 0.0
06/03:00pm 29.4 30.7 17.6 49 7.6 SE 7 15 4 8 1010.5 1009.1 0.0
06/02:30pm 29.4 30.2 18.2 51 7.2 ESE 11 19 6 10 1010.9 1009.5 0.0
06/02:00pm 29.7 31.4 18.5 51 7.3 ESE 7 13 4 7 1011.5 1010.1 0.0
06/01:30pm 30.2 33.0 19.6 53 7.0 WSW 4 9 2 5 1012.3 1010.9 0.0
06/01:00pm 28.9 30.9 18.7 54 6.6 SSE 6 11 3 6 1012.7 1011.3 0.0
06/12:30pm 28.9 29.6 18.9 54 6.5 SSE 13 17 7 9 1013.0 1011.6 0.0
06/12:00pm 29.3 31.5 18.4 51 7.1 N 4 11 2 6 1013.3 1011.9 0.0
06/11:30am 28.5 31.2 18.6 55 6.4 NNE 2 6 1 3 1013.7 1012.3 0.0
06/11:00am 28.1 29.9 18.8 57 6.0 N 7 13 4 7 1013.9 1012.5 0.0
06/10:30am 26.9 28.8 18.5 60 5.4 N 6 11 3 6 1014.2 1012.8 0.0
06/10:00am 26.7 28.2 18.8 62 5.1 NNE 9 15 5 8 1014.2 1012.8 0.0
06/09:30am 25.9 26.4 18.3 63 4.9 NE 13 22 7 12 1014.3 1012.9 0.0
06/09:00am 26.0 26.1 18.4 63 4.9 ENE 15 22 8 12 1014.4 1013.0 0.0
06/08:30am 25.6 26.3 18.8 66 4.4 E 13 17 7 9 1014.4 1013.0 0.0
06/08:00am 24.9 25.7 19.1 70 3.7 E 13 24 7 13 1014.5 1013.1 0.0
06/07:30am 24.2 24.0 19.3 74 3.2 ESE 19 26 10 14 1014.2 1012.8 0.0
06/07:00am 23.0 24.1 19.6 81 2.2 ESE 13 17 7 9 1014.0 1012.6 0.0
06/06:30am 22.6 24.0 19.6 83 1.9 SE 11 15 6 8 1013.8 1012.4 0.0
06/06:00am 22.2 23.6 19.6 85 1.7 ESE 11 13 6 7 1013.5 1012.1 0.0
06/05:30am 22.5 24.8 19.9 85 1.7 SSE 7 11 4 6 1013.5 1012.1 0.0
06/05:00am 22.1 24.3 19.6 86 1.6 SE 7 9 4 5 1013.2 1011.8 0.0
06/04:30am 22.2 24.1 19.7 86 1.6 SE 9 11 5 6 1012.9 1011.5 0.0
06/04:00am 22.6 24.9 19.8 84 1.8 SE 7 11 4 6 1012.4 1011.0 0.0
06/03:30am 22.5 24.8 19.5 83 1.9 SSE 6 9 3 5 1012.3 1010.9 0.0
06/03:00am 22.2 23.7 18.8 81 2.2 SE 9 11 5 6 1012.1 1010.7 0.0
06/02:30am 22.3 24.5 19.5 84 1.8 SSE 7 9 4 5 1012.3 1010.9 0.0
06/02:00am 22.1 24.2 18.9 82 2.0 SE 6 7 3 4 1012.3 1010.9 0.0
06/01:30am 21.8 23.6 18.4 81 2.1 SSE 6 7 3 4 1012.6 1011.2 0.0
06/01:00am 22.1 23.5 17.9 77 2.6 SE 7 11 4 6 1012.4 1011.0 0.0
06/12:30am 22.2 23.6 17.3 74 3.0 SSE 6 7 3 4 1012.3 1010.9 0.0
06/12:00am 22.7 24.7 16.9 70 3.6 N 2 7 1 4 1012.6 1011.2 0.0
 
Date/Time
EST
Temp
°C
App
Temp
°C
Dew
Point
°C
Rel
Hum
%
Delta-T
°C
Wind Press
QNH
hPa
Press
MSL
hPa
Rain since
9am
mm
Dir  Spd
km/h
Gust
km/h
Spd
kts
Gust
kts
05/11:30pm 23.3 22.5 17.1 68 3.9 NE 17 22 9 12 1012.3 1010.9 0.0
05/11:00pm 23.0 22.0 17.9 73 3.2 ENE 20 32 11 17 1012.6 1011.2 0.0
05/10:30pm 23.4 21.1 18.5 74 3.1 ENE 28 39 15 21 1012.9 1011.5 0.0
05/10:00pm 24.1 22.2 18.5 71 3.6 E 26 35 14 19 1013.0 1011.6 0.0
05/09:30pm 25.9 24.2 18.1 62 5.0 E 24 37 13 20 1012.5 1011.1 0.0
05/09:00pm 27.3 26.4 17.8 56 6.1 ESE 19 30 10 16 1011.6 1010.2 0.0
05/08:30pm 28.2 29.6 16.5 49 7.3 NE 4 7 2 4 1010.6 1009.2 0.0
05/08:00pm 28.0 29.6 16.0 48 7.5 ENE 2 9 1 5 1010.3 1008.9 0.0
05/07:30pm 29.3 30.1 15.8 44 8.4 SE 6 9 3 5 1010.0 1008.6 0.0
05/07:00pm 30.6 30.9 15.1 39 9.6 SSE 7 13 4 7 1009.6 1008.2 0.0
05/06:30pm 30.7 30.7 14.3 36 10.0 SSE 7 9 4 5 1009.2 1007.8 0.0
05/06:00pm 31.8 31.1 13.1 32 11.3 SSE 9 13 5 7 1008.8 1007.4 0.0
05/05:30pm 32.2 32.1 13.9 33 11.2 SSE 7 9 4 5 1008.5 1007.1 0.0
05/05:00pm 32.4 31.7 12.1 29 12.1 SSE 7 11 4 6 1008.4 1007.0 0.0
05/04:30pm 33.1 32.9 13.7 31 11.9 SSE 7 13 4 7 1008.1 1006.7 0.0
05/04:00pm 33.5 33.6 14.0 30 12.0 SSW 6 9 3 5 1008.3 1006.9 0.0
05/03:30pm 33.2 32.5 14.3 32 11.7 SSE 11 15 6 8 1008.6 1007.2 0.0
05/03:00pm 33.1 33.5 14.7 33 11.4 ESE 6 9 3 5 1008.9 1007.5 0.0
05/02:30pm 32.7 33.6 16.5 37 10.3 S 7 13 4 7 1009.3 1007.9 0.0
05/02:00pm 33.1 34.8 18.5 42 9.6 S 7 13 4 7 1009.6 1008.2 0.0
05/01:30pm 32.4 33.4 17.8 41 9.5 S 9 13 5 7 1010.1 1008.7 0.0
05/01:00pm 31.9 34.5 18.5 45 8.8 SE 2 7 1 4 1010.6 1009.2 0.0
05/12:30pm 31.6 34.0 18.9 47 8.3 S 4 9 2 5 1010.9 1009.5 0.0
05/12:00pm 31.2 33.0 18.2 46 8.4 S 6 11 3 6 1011.3 1009.9 0.0
05/11:30am 30.4 32.5 18.2 48 7.9 WSW 4 7 2 4 1011.9 1010.4 0.0
05/11:00am 30.4 32.8 20.0 53 6.9 NNE 7 13 4 7 1012.1 1010.7 0.0
05/10:30am 29.8 32.4 20.4 57 6.3 NE 7 20 4 11 1012.8 1011.4 0.0
05/10:00am 29.4 31.6 21.1 61 5.6 ESE 11 19 6 10 1013.3 1011.9 0.0
05/09:30am 29.2 30.3 20.4 59 5.9 ESE 15 24 8 13 1013.4 1012.0 0.0
05/09:00am 28.2 28.8 19.4 59 5.8 ESE 15 22 8 12 1013.3 1011.9 0.0
05/08:30am 27.5 27.4 16.1 49 7.1 SSE 11 17 6 9 1013.3 1011.9 0.0
05/08:00am 27.1 26.9 15.8 50 7.0 SE 11 17 6 9 1013.2 1011.8 0.0
05/07:30am 26.3 25.8 15.0 49 6.9 SSE 11 15 6 8 1012.9 1011.5 0.0
05/07:00am 25.8 26.3 15.5 53 6.3 SSE 7 11 4 6 1012.6 1011.2 0.0
05/06:30am 24.4 25.4 16.9 63 4.7 SSE 7 11 4 6 1012.2 1010.8 0.0
05/06:00am 24.1 24.5 14.8 56 5.6 SSE 6 9 3 5 1012.0 1010.5 0.0
05/05:30am 23.4 23.6 14.1 56 5.5 S 6 9 3 5 1011.9 1010.4 0.0
05/05:00am 23.5 23.4 15.0 59 5.1 S 9 13 5 7 1011.2 1009.8 0.0
05/04:30am 23.4 24.6 17.4 69 3.8 SSW 7 11 4 6 1010.8 1009.4 0.0
05/04:00am 24.0 26.3 19.5 76 2.9 S 6 9 3 5 1010.6 1009.2 0.0
05/03:30am 24.3 26.4 20.2 78 2.7 SSE 9 15 5 8 1010.3 1008.9 0.0
05/03:00am 24.1 27.4 21.4 85 1.8 SSE 6 11 3 6 1010.2 1008.8 0.0
05/02:30am 23.3 27.2 21.9 92 0.9 S 4 7 2 4 1010.0 1008.6 0.0
05/02:00am 23.4 26.5 20.2 82 2.1 S 4 6 2 3 1010.0 1008.6 0.0
05/01:30am 24.2 28.6 21.3 84 1.9 CALM 0 2 0 1 1010.0 1008.6 0.0
05/01:00am 24.4 27.0 20.1 77 2.8 SSW 6 7 3 4 1010.5 1009.1 0.0
05/12:30am 24.4 26.3 17.6 66 4.3 SSW 4 6 2 3 1010.6 1009.2 0.0
05/12:00am 24.6 26.7 18.1 67 4.1 SSW 4 6 2 3 1010.9 1009.5 0.0
 
Date/Time
EST
Temp
°C
App
Temp
°C
Dew
Point
°C
Rel
Hum
%
Delta-T
°C
Wind Press
QNH
hPa
Press
MSL
hPa
Rain since
9am
mm
Dir  Spd
km/h
Gust
km/h
Spd
kts
Gust
kts
04/11:30pm 24.5 27.7 18.9 71 3.6 CALM 0 0 0 0 1011.2 1009.8 0.0
04/11:00pm 24.8 27.7 18.3 67 4.1 CALM 0 0 0 0 1011.0 1009.6 0.0
04/10:30pm 24.7 27.3 17.4 64 4.6 CALM 0 0 0 0 1011.0 1009.6 0.0
04/10:00pm 25.2 27.6 17.9 64 4.6 NNE 2 6 1 3 1010.9 1009.5 0.0
04/09:30pm 25.5 27.5 16.9 59 5.4 WSW 2 4 1 2 1010.8 1009.4 0.0
04/09:00pm 25.4 27.2 17.3 61 5.1 NW 4 6 2 3 1010.7 1009.3 0.0
04/08:30pm 26.4 29.8 19.3 65 4.6 CALM 0 0 0 0 1010.4 1009.0 0.0
04/08:00pm 26.9 29.9 18.5 60 5.4 CALM 0 0 0 0 1010.1 1008.7 0.0
04/07:30pm 27.1 29.5 17.0 54 6.4 CALM 0 0 0 0 1010.0 1008.6 0.0
04/07:00pm 28.3 29.6 17.5 52 6.9 NE 7 9 4 5 1009.6 1008.2 0.0
04/06:30pm 29.4 30.7 17.2 47 7.8 ESE 6 7 3 4 1009.1 1007.7 0.0
04/06:00pm 30.5 29.2 15.8 41 9.2 E 17 20 9 11 1009.2 1007.8 0.0
04/05:30pm 30.7 29.6 17.7 45 8.4 E 20 30 11 16 1008.9 1007.5 0.0
04/05:16pm 32.0 29.7 16.7 40 9.7 ESE 24 43 13 23 1008.6 1007.2 0.0
04/05:00pm 34.6 33.9 16.4 33 11.7 SSE 15 20 8 11 1008.3 1006.9 0.0
04/04:30pm 34.9 35.3 15.3 31 12.4 S 7 13 4 7 1008.1 1006.7 0.0
04/04:00pm 34.8 35.9 17.1 35 11.5 SSE 7 13 4 7 1008.5 1007.1 0.0
04/03:30pm 34.5 36.0 17.7 37 10.9 SSE 6 13 3 7 1008.8 1007.4 0.0
04/03:00pm 33.8 34.9 17.1 37 10.8 SE 7 13 4 7 1009.4 1008.0 0.0
04/02:30pm 33.8 34.9 17.9 38 10.4 SSE 9 15 5 8 1009.9 1008.5 0.0
04/02:00pm 33.6 35.1 18.1 39 10.1 SE 7 13 4 7 1010.3 1008.9 0.0
04/01:30pm 33.1 34.6 18.8 42 9.4 SSE 9 13 5 7 1010.8 1009.4 0.0
04/01:00pm 32.8 33.1 17.0 38 10.1 SSE 11 15 6 8 1011.3 1009.9 0.0
04/12:30pm 32.4 35.0 19.3 46 8.7 SE 4 13 2 7 1011.6 1010.2 0.0
04/12:00pm 31.8 34.9 21.0 52 7.3 SE 6 7 3 4 1012.2 1010.8 0.0
04/11:30am 31.5 34.8 20.8 53 7.2 ESE 4 6 2 3 1012.6 1011.2 0.0
04/11:00am 30.1 33.5 20.9 57 6.2 N 4 9 2 5 1013.1 1011.7 0.0
04/10:30am 29.7 32.9 21.6 61 5.5 NNE 7 13 4 7 1013.7 1012.3 0.0

Other formats

Comma delimited format used in spreadsheet applications
http://www.bom.gov.au/fwo/IDQ60801/IDQ60801.94396.axf

JavaScript Object Notation format (JSON) in row-major order
http://www.bom.gov.au/fwo/IDQ60801/IDQ60801.94396.json

Data quality

Most of these data are generated automatically and are frequently updated. Quality checks on data are not normally performed. It is possible for incorrect values to appear. Refer to information at About Latest Weather Observations and please check the disclaimer before using these data.